createdAt,value
2022-09-12T00:00:23.588Z,15.17
2022-09-12T00:02:54.457Z,15.16
2022-09-12T00:05:22.550Z,15.14
2022-09-12T00:07:50.446Z,15.09
2022-09-12T00:10:19.435Z,15.07
2022-09-12T00:12:47.071Z,15.07
2022-09-12T00:15:16.141Z,15.06
2022-09-12T00:17:43.795Z,15.04
2022-09-12T00:20:12.374Z,15.02
2022-09-12T00:22:40.030Z,15.01
2022-09-12T00:25:08.831Z,14.98
2022-09-12T00:27:36.442Z,14.91
2022-09-12T00:30:04.604Z,14.87
2022-09-12T00:32:33.607Z,14.83
2022-09-12T00:35:02.781Z,14.83
2022-09-12T00:37:31.195Z,14.86
2022-09-12T00:39:58.845Z,14.85
2022-09-12T00:42:26.486Z,14.82
2022-09-12T00:44:54.452Z,14.80
2022-09-12T00:47:26.239Z,14.79
2022-09-12T00:50:00.949Z,14.78
2022-09-12T00:52:31.687Z,14.78
2022-09-12T00:55:03.819Z,14.76
2022-09-12T00:57:36.756Z,14.74
2022-09-12T01:00:13.660Z,14.70
2022-09-12T01:02:42.197Z,14.69
2022-09-12T01:05:12.091Z,14.68
2022-09-12T01:07:41.335Z,14.65
2022-09-12T01:10:10.692Z,14.63
2022-09-12T01:12:41.082Z,14.60
2022-09-12T01:15:10.081Z,14.57
2022-09-12T01:17:52.270Z,14.54
2022-09-12T01:20:47.246Z,14.50
2022-09-12T01:23:38.418Z,14.48
2022-09-12T01:26:24.363Z,14.49
2022-09-12T01:29:14.563Z,14.47
2022-09-12T01:31:52.441Z,14.45
2022-09-12T01:34:28.123Z,14.42
2022-09-12T01:37:04.544Z,14.42
2022-09-12T01:39:41.526Z,14.40
2022-09-12T01:42:14.684Z,14.37
2022-09-12T01:44:51.419Z,14.34
2022-09-12T01:47:25.538Z,14.32
2022-09-12T01:50:01.362Z,14.30
2022-09-12T01:52:32.896Z,14.27
2022-09-12T01:55:09.748Z,14.26
2022-09-12T01:57:42.095Z,14.26
2022-09-12T02:00:13.137Z,14.25
2022-09-12T02:02:48.511Z,14.21
2022-09-12T02:05:21.498Z,14.18
2022-09-12T02:07:52.909Z,14.18
2022-09-12T02:10:26.345Z,14.18
2022-09-12T02:12:59.645Z,14.16
2022-09-12T02:15:33.587Z,14.14
2022-09-12T02:18:06.870Z,14.13
2022-09-12T02:20:47.850Z,14.12
2022-09-12T02:23:20.499Z,14.11
2022-09-12T02:25:52.337Z,14.11
2022-09-12T02:28:24.346Z,14.09
2022-09-12T02:30:58.049Z,14.09
2022-09-12T02:33:31.498Z,14.07
2022-09-12T02:36:05.638Z,14.06
2022-09-12T02:38:41.544Z,14.07
2022-09-12T02:41:09.370Z,14.00
2022-09-12T02:43:37.788Z,13.93
2022-09-12T02:46:07.448Z,13.88
2022-09-12T02:48:41.827Z,13.89
2022-09-12T02:51:09.759Z,13.90
2022-09-12T02:53:38.616Z,13.91
2022-09-12T02:56:12.222Z,13.89
2022-09-12T02:58:40.107Z,13.89
2022-09-12T03:01:14.905Z,13.89
2022-09-12T03:04:01.369Z,13.88
2022-09-12T03:06:36.427Z,13.81
2022-09-12T03:09:13.582Z,13.78
2022-09-12T03:12:04.462Z,13.78
2022-09-12T03:14:46.793Z,13.79
2022-09-12T03:17:25.950Z,13.73
2022-09-12T03:20:02.258Z,13.64
2022-09-12T03:22:34.800Z,13.58
2022-09-12T03:25:06.799Z,13.59
2022-09-12T03:27:37.733Z,13.61
2022-09-12T03:30:06.264Z,13.63
2022-09-12T03:32:45.147Z,13.64
2022-09-12T03:35:15.143Z,13.66
2022-09-12T03:37:42.863Z,13.65
2022-09-12T03:40:12.417Z,13.65
2022-09-12T03:42:40.228Z,13.66
2022-09-12T03:45:09.670Z,13.65
2022-09-12T03:47:37.497Z,13.64
2022-09-12T03:50:06.357Z,13.63
2022-09-12T03:52:35.571Z,13.62
2022-09-12T03:55:03.232Z,13.62
2022-09-12T03:57:30.878Z,13.62
2022-09-12T03:59:58.541Z,13.60
2022-09-12T04:02:26.202Z,13.60
2022-09-12T04:04:53.911Z,13.57
2022-09-12T04:07:21.632Z,13.54
2022-09-12T04:09:50.639Z,13.53
2022-09-12T04:12:18.278Z,13.53
2022-09-12T04:14:46.297Z,13.56
2022-09-12T04:17:15.178Z,13.56
2022-09-12T04:19:42.871Z,13.49
2022-09-12T04:22:10.475Z,13.50
2022-09-12T04:24:38.133Z,13.49
2022-09-12T04:27:07.929Z,13.50
2022-09-12T04:29:35.698Z,13.51
2022-09-12T04:32:04.771Z,13.51
2022-09-12T04:34:32.766Z,13.50
2022-09-12T04:37:00.428Z,13.43
2022-09-12T04:39:28.167Z,13.38
2022-09-12T04:41:55.838Z,13.39
2022-09-12T04:44:24.963Z,13.41
2022-09-12T04:46:52.752Z,13.46
2022-09-12T04:49:20.386Z,13.46
2022-09-12T04:51:48.310Z,13.47
2022-09-12T04:54:17.828Z,13.48
2022-09-12T04:56:47.361Z,13.48
2022-09-12T04:59:16.382Z,13.46
2022-09-12T05:01:45.430Z,13.46
2022-09-12T05:04:14.455Z,13.47
2022-09-12T05:06:43.586Z,13.49
2022-09-12T05:09:14.071Z,13.52
2022-09-12T05:14:34.087Z,13.56
2022-09-12T05:17:04.343Z,13.59
2022-09-12T05:19:32.932Z,13.62
2022-09-12T05:22:02.509Z,13.66
2022-09-12T05:24:30.219Z,13.72
2022-09-12T05:26:57.891Z,13.79
2022-09-12T05:29:25.664Z,13.88
2022-09-12T05:31:53.749Z,13.95
2022-09-12T05:34:23.457Z,14.04
2022-09-12T05:36:51.213Z,14.11
2022-09-12T05:39:18.993Z,14.17
2022-09-12T05:41:47.291Z,14.25
2022-09-12T05:44:15.707Z,14.30
2022-09-12T05:46:46.630Z,14.38
2022-09-12T05:49:14.832Z,14.43
2022-09-12T05:51:45.653Z,14.49
2022-09-12T05:54:19.364Z,14.54
2022-09-12T05:56:48.321Z,14.58
2022-09-12T05:59:18.308Z,14.65
2022-09-12T06:01:46.871Z,14.69
2022-09-12T06:04:14.590Z,14.75
2022-09-12T06:06:45.859Z,14.82
2022-09-12T06:09:15.027Z,14.87
2022-09-12T06:11:43.337Z,14.92
2022-09-12T06:14:12.560Z,14.96
2022-09-12T06:16:40.351Z,14.98
2022-09-12T06:19:13.827Z,15.01
2022-09-12T06:21:43.067Z,15.07
2022-09-12T06:24:10.914Z,15.12
2022-09-12T06:26:38.745Z,15.18
2022-09-12T06:29:06.498Z,15.23
2022-09-12T06:31:36.425Z,15.31
2022-09-12T06:34:06.402Z,15.40
2022-09-12T06:36:37.479Z,15.47
2022-09-12T06:39:08.725Z,15.55
2022-09-12T06:41:38.459Z,15.63
2022-09-12T06:44:12.142Z,15.72
2022-09-12T06:46:39.789Z,15.81
2022-09-12T06:49:08.116Z,15.90
2022-09-12T06:51:36.243Z,15.98
2022-09-12T06:54:05.300Z,16.06
2022-09-12T06:56:34.662Z,16.14
2022-09-12T06:59:02.328Z,16.22
2022-09-12T07:01:31.986Z,16.30
2022-09-12T07:04:01.070Z,16.34
2022-09-12T07:06:31.861Z,16.42
2022-09-12T07:09:00.945Z,16.48
2022-09-12T07:11:32.622Z,16.54
2022-09-12T07:14:03.126Z,16.60
2022-09-12T07:16:31.159Z,16.66
2022-09-12T07:19:00.416Z,16.72
2022-09-12T07:21:28.961Z,16.76
2022-09-12T07:23:57.840Z,16.84
2022-09-12T07:26:26.871Z,16.87
2022-09-12T07:29:07.969Z,16.93
2022-09-12T07:31:45.409Z,16.98
2022-09-12T07:34:13.879Z,17.05
2022-09-12T07:36:41.678Z,17.11
2022-09-12T07:39:09.612Z,17.18
2022-09-12T07:41:37.256Z,17.23
2022-09-12T07:44:06.645Z,17.27
2022-09-12T07:46:35.285Z,17.32
2022-09-12T07:49:04.431Z,17.39
2022-09-12T07:51:32.438Z,17.43
2022-09-12T07:54:00.672Z,17.52
2022-09-12T07:56:32.743Z,17.57
2022-09-12T07:59:02.506Z,17.61
2022-09-12T08:01:30.928Z,17.69
2022-09-12T08:04:00.000Z,17.73
2022-09-12T08:06:33.747Z,17.75
2022-09-12T08:09:01.912Z,17.79
2022-09-12T08:11:30.989Z,17.83
2022-09-12T08:13:59.983Z,17.86
2022-09-12T08:16:29.569Z,17.91
2022-09-12T08:18:57.250Z,17.98
2022-09-12T08:21:26.859Z,18.14
2022-09-12T08:23:57.389Z,18.29
2022-09-12T08:26:25.719Z,18.46
2022-09-12T08:28:54.005Z,18.54
2022-09-12T08:31:23.867Z,18.54
2022-09-12T08:33:52.266Z,18.53
2022-09-12T08:36:22.584Z,18.54
2022-09-12T08:38:59.260Z,18.57
2022-09-12T08:41:31.753Z,18.63
2022-09-12T08:44:31.562Z,18.66
2022-09-12T08:47:24.970Z,18.75
2022-09-12T08:50:00.341Z,18.88
2022-09-12T08:52:32.302Z,18.91
2022-09-12T08:55:01.295Z,19.01
2022-09-12T08:57:30.438Z,19.13
2022-09-12T08:59:58.344Z,19.22
2022-09-12T09:02:43.048Z,19.28
2022-09-12T09:05:20.818Z,19.44
2022-09-12T09:08:10.679Z,19.59
2022-09-12T09:10:48.015Z,19.71
2022-09-12T09:13:48.222Z,19.74
2022-09-12T09:16:23.866Z,19.78
2022-09-12T09:18:53.669Z,19.79
2022-09-12T09:21:30.141Z,19.82
2022-09-12T09:24:04.973Z,19.92
2022-09-12T09:26:43.031Z,20.04
2022-09-12T09:29:18.660Z,20.18
2022-09-12T09:31:49.617Z,20.30
2022-09-12T09:34:22.503Z,20.41
2022-09-12T09:36:52.652Z,20.49
2022-09-12T09:39:44.326Z,20.58
2022-09-12T09:42:23.707Z,20.66
2022-09-12T09:44:54.984Z,20.69
2022-09-12T09:47:23.355Z,20.68
2022-09-12T09:49:51.026Z,20.69
2022-09-12T09:52:25.490Z,20.71
2022-09-12T09:54:57.583Z,20.76
2022-09-12T09:57:41.522Z,20.80
2022-09-12T10:00:27.247Z,20.87
2022-09-12T10:03:15.015Z,20.91
2022-09-12T10:05:48.141Z,20.99
2022-09-12T10:08:22.269Z,21.09
2022-09-12T10:11:02.885Z,21.19
2022-09-12T10:13:36.571Z,21.21
2022-09-12T10:16:08.706Z,21.26
2022-09-12T10:18:43.852Z,21.32
2022-09-12T10:21:23.468Z,21.39
2022-09-12T10:24:00.111Z,21.47
2022-09-12T10:26:33.126Z,21.53
2022-09-12T10:29:11.814Z,21.58
2022-09-12T10:31:48.226Z,21.62
2022-09-12T10:34:32.412Z,21.67
2022-09-12T10:37:04.182Z,21.77
2022-09-12T10:39:32.728Z,21.81
2022-09-12T10:42:00.526Z,21.86
2022-09-12T10:44:30.756Z,21.91
2022-09-12T10:47:01.413Z,21.94
2022-09-12T10:49:31.379Z,22.03
2022-09-12T10:52:18.204Z,22.11
2022-09-12T10:54:46.367Z,22.19
2022-09-12T10:57:58.647Z,22.23
2022-09-12T11:00:30.521Z,22.30
2022-09-12T11:03:16.081Z,22.35
2022-09-12T11:05:55.270Z,22.43
2022-09-12T11:08:39.509Z,22.52
2022-09-12T11:11:23.681Z,22.57
2022-09-12T11:14:06.752Z,22.65
2022-09-12T11:16:43.152Z,22.72
2022-09-12T11:19:30.923Z,22.75
2022-09-12T11:22:13.168Z,22.80
2022-09-12T11:25:07.018Z,22.80
2022-09-12T11:27:46.659Z,22.82
2022-09-12T11:30:17.552Z,22.88
2022-09-12T11:33:08.478Z,22.89
2022-09-12T11:35:45.325Z,22.91
2022-09-12T11:38:29.950Z,22.96
2022-09-12T11:41:01.855Z,22.97
2022-09-12T11:43:40.728Z,23.01
2022-09-12T11:46:16.183Z,23.06
2022-09-12T11:48:49.734Z,23.14
2022-09-12T11:51:21.148Z,23.18
2022-09-12T11:54:01.707Z,23.18
2022-09-12T11:56:29.453Z,23.24
2022-09-12T11:59:04.226Z,23.31
2022-09-12T12:01:43.886Z,23.35
2022-09-12T12:04:16.453Z,23.41
2022-09-12T12:06:53.657Z,23.44
2022-09-12T12:09:21.602Z,23.49
2022-09-12T12:11:56.032Z,23.56
2022-09-12T12:14:26.198Z,23.60
2022-09-12T12:16:54.234Z,23.65
2022-09-12T12:19:36.667Z,23.70
2022-09-12T12:22:17.576Z,23.71
2022-09-12T12:25:08.113Z,23.73
2022-09-12T12:27:51.871Z,23.77
2022-09-12T12:31:03.025Z,23.81
2022-09-12T12:33:53.428Z,23.81
2022-09-12T12:36:38.419Z,23.86
2022-09-12T12:39:48.149Z,23.93
2022-09-12T12:43:02.812Z,24.00
2022-09-12T12:46:10.499Z,24.01
2022-09-12T12:49:09.458Z,24.00
2022-09-12T12:51:42.949Z,24.06
2022-09-12T12:54:48.737Z,24.16
2022-09-12T12:57:48.428Z,24.19
2022-09-12T13:00:33.119Z,24.23
2022-09-12T13:03:07.045Z,24.20
2022-09-12T13:05:42.735Z,24.22
2022-09-12T13:08:25.572Z,24.26
2022-09-12T13:10:57.914Z,24.29
2022-09-12T13:13:32.430Z,24.34
2022-09-12T13:16:00.174Z,24.41
2022-09-12T13:18:34.017Z,24.43
2022-09-12T13:21:11.043Z,24.40
2022-09-12T13:23:38.979Z,24.42
2022-09-12T13:26:12.424Z,24.40
2022-09-12T13:28:40.145Z,24.35
2022-09-12T13:31:19.117Z,24.34
2022-09-12T13:33:49.333Z,24.38
2022-09-12T13:36:38.104Z,24.40
2022-09-12T13:39:21.983Z,24.40
2022-09-12T13:42:43.334Z,24.41
2022-09-12T13:45:15.761Z,24.46
2022-09-12T13:47:45.191Z,24.51
2022-09-12T13:50:20.398Z,24.57
2022-09-12T13:52:53.224Z,24.59
2022-09-12T13:55:30.134Z,24.61
2022-09-12T13:58:00.677Z,24.61
2022-09-12T14:00:31.991Z,24.64
2022-09-12T14:03:17.594Z,24.69
2022-09-12T14:05:53.103Z,24.74
2022-09-12T14:08:24.017Z,24.76
2022-09-12T14:10:52.263Z,24.78
2022-09-12T14:13:23.400Z,24.82
2022-09-12T14:15:53.419Z,24.78
2022-09-12T14:18:27.170Z,24.81
2022-09-12T14:20:56.895Z,24.82
2022-09-12T14:23:30.241Z,24.80
2022-09-12T14:26:00.023Z,24.79
2022-09-12T14:28:30.217Z,24.80
2022-09-12T14:31:00.093Z,24.79
2022-09-12T14:33:27.841Z,24.77
2022-09-12T14:36:12.025Z,24.73
2022-09-12T14:38:46.023Z,24.71
2022-09-12T14:41:21.468Z,24.68
2022-09-12T14:43:54.071Z,24.68
2022-09-12T14:46:28.493Z,24.69
2022-09-12T14:48:58.921Z,24.67
2022-09-12T14:51:29.952Z,24.68
2022-09-12T14:53:59.503Z,24.72
2022-09-12T14:56:41.217Z,24.73
2022-09-12T14:59:27.525Z,24.74
2022-09-12T15:02:18.940Z,24.76
2022-09-12T15:04:48.273Z,24.76
2022-09-12T15:07:16.724Z,24.76
2022-09-12T15:09:47.453Z,24.74
2022-09-12T15:12:15.192Z,24.74
2022-09-12T15:14:42.832Z,24.76
2022-09-12T15:17:10.452Z,24.76
2022-09-12T15:19:38.104Z,24.73
2022-09-12T15:22:06.007Z,24.71
2022-09-12T15:24:33.671Z,24.69
2022-09-12T15:27:02.718Z,24.66
2022-09-12T15:29:30.426Z,24.62
2022-09-12T15:31:58.124Z,24.63
2022-09-12T15:34:25.843Z,24.63
2022-09-12T15:36:53.548Z,24.64
2022-09-12T15:39:21.210Z,24.64
2022-09-12T15:41:49.344Z,24.65
2022-09-12T15:44:20.084Z,24.64
2022-09-12T15:46:48.297Z,24.62
2022-09-12T15:49:15.980Z,24.63
2022-09-12T15:51:43.633Z,24.62
2022-09-12T15:54:13.877Z,24.61
2022-09-12T15:56:41.854Z,24.58
2022-09-12T15:59:09.499Z,24.55
2022-09-12T16:01:38.563Z,24.53
2022-09-12T16:04:23.726Z,24.49
2022-09-12T16:06:51.836Z,24.47
2022-09-12T16:09:19.653Z,24.46
2022-09-12T16:11:47.750Z,24.44
2022-09-12T16:14:16.167Z,24.42
2022-09-12T16:16:46.309Z,24.42
2022-09-12T16:19:13.971Z,24.41
2022-09-12T16:21:41.667Z,24.40
2022-09-12T16:24:09.436Z,24.40
2022-09-12T16:26:37.121Z,24.40
2022-09-12T16:29:05.173Z,24.39
2022-09-12T16:31:40.286Z,24.39
2022-09-12T16:34:09.404Z,24.36
2022-09-12T16:36:37.085Z,24.36
2022-09-12T16:39:05.345Z,24.33
2022-09-12T16:41:33.197Z,24.31
2022-09-12T16:44:00.829Z,24.30
2022-09-12T16:46:29.599Z,24.25
2022-09-12T16:48:59.255Z,24.23
2022-09-12T16:51:31.810Z,24.21
2022-09-12T16:53:59.689Z,24.17
2022-09-12T16:56:27.553Z,24.14
2022-09-12T16:58:55.588Z,24.08
2022-09-12T17:01:25.106Z,24.02
2022-09-12T17:03:54.445Z,23.98
2022-09-12T17:06:22.240Z,23.93
2022-09-12T17:08:52.819Z,23.89
2022-09-12T17:11:22.921Z,23.85
2022-09-12T17:14:07.568Z,23.82
2022-09-12T17:16:39.806Z,23.78
2022-09-12T17:19:13.099Z,23.74
2022-09-12T17:21:40.745Z,23.70
2022-09-12T17:24:09.859Z,23.64
2022-09-12T17:26:37.806Z,23.60
2022-09-12T17:29:05.668Z,23.55
2022-09-12T17:31:33.767Z,23.48
2022-09-12T17:34:06.724Z,23.43
2022-09-12T17:36:34.675Z,23.35
2022-09-12T17:39:03.635Z,23.28
2022-09-12T17:41:33.410Z,23.21
2022-09-12T17:44:02.485Z,23.14
2022-09-12T17:46:34.960Z,23.09
2022-09-12T17:49:04.569Z,23.04
2022-09-12T17:51:32.335Z,22.97
2022-09-12T17:54:02.134Z,22.93
2022-09-12T17:56:32.985Z,22.86
2022-09-12T17:59:01.559Z,22.79
2022-09-12T18:01:48.188Z,22.75
2022-09-12T18:04:16.255Z,22.66
2022-09-12T18:06:48.013Z,22.57
2022-09-12T18:09:17.772Z,22.49
2022-09-12T18:11:48.254Z,22.42
2022-09-12T18:14:17.247Z,22.35
2022-09-12T18:16:45.209Z,22.32
2022-09-12T18:19:13.300Z,22.27
2022-09-12T18:21:41.241Z,22.25
2022-09-12T18:24:10.528Z,22.20
2022-09-12T18:26:38.374Z,22.11
2022-09-12T18:29:08.104Z,22.03
2022-09-12T18:31:35.955Z,21.96
2022-09-12T18:34:05.893Z,21.91
2022-09-12T18:36:33.624Z,21.89
2022-09-12T18:39:01.260Z,21.86
2022-09-12T18:41:29.218Z,21.81
2022-09-12T18:43:58.513Z,21.80
2022-09-12T18:46:28.899Z,21.77
2022-09-12T18:48:57.654Z,21.74
2022-09-12T18:51:31.260Z,21.71
2022-09-12T18:54:00.959Z,21.70
2022-09-12T18:56:32.632Z,21.72
2022-09-12T18:59:01.761Z,21.70
2022-09-12T19:01:32.630Z,21.69
2022-09-12T19:04:00.986Z,21.66
2022-09-12T19:06:30.462Z,21.65
2022-09-12T19:09:01.692Z,21.63
2022-09-12T19:11:31.616Z,21.60
2022-09-12T19:13:59.285Z,21.56
2022-09-12T19:16:28.517Z,21.50
2022-09-12T19:18:58.500Z,21.48
2022-09-12T19:21:28.144Z,21.42
2022-09-12T19:23:57.996Z,21.39
2022-09-12T19:26:26.338Z,21.36
2022-09-12T19:28:55.171Z,21.33
2022-09-12T19:31:23.465Z,21.30
2022-09-12T19:33:52.088Z,21.26
2022-09-12T19:36:43.677Z,21.20
2022-09-12T19:39:11.335Z,21.16
2022-09-12T19:41:39.035Z,21.13
2022-09-12T19:44:06.724Z,21.08
2022-09-12T19:46:34.556Z,21.07
2022-09-12T19:49:02.347Z,21.04
2022-09-12T19:51:31.454Z,21.01
2022-09-12T19:53:59.188Z,20.99
2022-09-12T19:56:26.829Z,20.93
2022-09-12T19:58:56.714Z,20.90
2022-09-12T20:01:28.285Z,20.85
2022-09-12T20:03:56.410Z,20.82
2022-09-12T20:06:24.550Z,20.76
2022-09-12T20:08:53.604Z,20.73
2022-09-12T20:11:25.770Z,20.71
2022-09-12T20:13:54.384Z,20.63
2022-09-12T20:16:26.434Z,20.62
2022-09-12T20:18:56.072Z,20.57
2022-09-12T20:21:30.951Z,20.58
2022-09-12T20:24:03.169Z,20.58
2022-09-12T20:26:31.125Z,20.58
2022-09-12T20:28:58.778Z,20.58
2022-09-12T20:31:27.005Z,20.55
2022-09-12T20:34:14.366Z,20.52
2022-09-12T20:36:42.020Z,20.52
2022-09-12T20:39:14.848Z,20.51
2022-09-12T20:41:42.642Z,20.48
2022-09-12T20:44:10.340Z,20.45
2022-09-12T20:46:38.028Z,20.40
2022-09-12T20:49:05.839Z,20.36
2022-09-12T20:51:34.870Z,20.36
2022-09-12T20:54:04.600Z,20.34
2022-09-12T20:56:34.575Z,20.29
2022-09-12T20:59:02.871Z,20.29
2022-09-12T21:01:31.647Z,20.29
2022-09-12T21:04:00.340Z,20.28
2022-09-12T21:06:28.503Z,20.29
2022-09-12T21:09:00.484Z,20.30
2022-09-12T21:11:29.205Z,20.32
2022-09-12T21:13:57.235Z,20.33
2022-09-12T21:16:25.213Z,20.34
2022-09-12T21:18:57.655Z,20.36
2022-09-12T21:21:25.469Z,20.36
2022-09-12T21:23:55.189Z,20.33
2022-09-12T21:26:24.407Z,20.31
2022-09-12T21:28:52.264Z,20.31
2022-09-12T21:31:19.983Z,20.34
2022-09-12T21:33:47.763Z,20.31
2022-09-12T21:36:15.470Z,20.31
2022-09-12T21:38:43.274Z,20.30
2022-09-12T21:41:12.805Z,20.30
2022-09-12T21:43:42.316Z,20.32
2022-09-12T21:46:10.536Z,20.30
2022-09-12T21:48:38.309Z,20.28
2022-09-12T21:51:06.534Z,20.27
2022-09-12T21:53:34.261Z,20.27
2022-09-12T21:56:02.651Z,20.25
2022-09-12T21:58:30.462Z,20.23
2022-09-12T22:00:59.724Z,20.18
2022-09-12T22:03:27.530Z,20.14
2022-09-12T22:05:58.217Z,20.09
2022-09-12T22:08:26.102Z,20.06
2022-09-12T22:10:53.783Z,20.03
2022-09-12T22:13:21.380Z,20.02
2022-09-12T22:15:51.988Z,20.01
2022-09-12T22:18:20.998Z,20.01
2022-09-12T22:20:48.607Z,20.00
2022-09-12T22:23:33.985Z,19.98
2022-09-12T22:26:02.746Z,19.95
2022-09-12T22:28:32.104Z,19.93
2022-09-12T22:30:59.799Z,19.89
2022-09-12T22:33:28.874Z,19.83
2022-09-12T22:35:56.482Z,19.79
2022-09-12T22:38:26.029Z,19.71
2022-09-12T22:40:53.880Z,19.70
2022-09-12T22:43:21.483Z,19.70
2022-09-12T22:45:49.129Z,19.69
2022-09-12T22:48:17.082Z,19.66
2022-09-12T22:50:46.109Z,19.62
2022-09-12T22:53:13.739Z,19.61
2022-09-12T22:55:41.365Z,19.60
2022-09-12T22:58:08.984Z,19.64
2022-09-12T23:00:36.711Z,19.63
2022-09-12T23:03:04.401Z,19.64
2022-09-12T23:05:32.311Z,19.64
2022-09-12T23:08:01.603Z,19.67
2022-09-12T23:10:29.264Z,19.69
2022-09-12T23:12:57.460Z,19.73
2022-09-12T23:15:25.103Z,19.77
2022-09-12T23:17:52.726Z,19.74
2022-09-12T23:20:20.350Z,19.73
2022-09-12T23:22:48.035Z,19.75
2022-09-12T23:25:17.701Z,19.73
2022-09-12T23:27:45.474Z,19.74
2022-09-12T23:30:13.251Z,19.75
2022-09-12T23:32:40.885Z,19.77
2022-09-12T23:35:08.867Z,19.76
2022-09-12T23:37:36.458Z,19.76
2022-09-12T23:40:04.565Z,19.74
2022-09-12T23:42:33.577Z,19.71
2022-09-12T23:45:01.186Z,19.70
2022-09-12T23:47:28.815Z,19.70
2022-09-12T23:49:56.399Z,19.70
2022-09-12T23:52:23.989Z,19.71
2022-09-12T23:54:51.665Z,19.68
2022-09-12T23:57:19.316Z,19.67
2022-09-12T23:59:48.275Z,19.64
